Terminal Aerodrome Forecast
Issued by NWS

Home | Current Version | Previous Version | Text Only | Print | Product List | Glossary On
Versions: 1 2 3 4 5 6 7 8 9 10 11 12 13
000
FTUS46 KSEW 252334
TAFBFI
TAF
KBFI 252334Z 2600/2624 23008KT P6SM BKN035
     FM260200 29008KT P6SM SCT035 BKN060
     FM260600 17007KT P6SM OVC035
     FM260800 18009KT P6SM OVC015
     FM262200 19012G18KT P6SM OVC040=

USA.gov is the U.S. government's official web portal to all federal, state and local government web resources and services.